sensor_id;sensor_type;location;lat;lon;timestamp;pressure;altitude;pressure_sealevel;temperature;humidity
24160;BME280;62385;41.594;23.808;2023-04-01T00:01:47;94783.50;;;9.60;56.22
24160;BME280;62385;41.594;23.808;2023-04-01T00:04:12;94773.59;;;10.12;54.58
24160;BME280;62385;41.594;23.808;2023-04-01T00:06:38;94784.59;;;10.60;52.13
24160;BME280;62385;41.594;23.808;2023-04-01T00:09:04;94777.75;;;10.93;51.42
24160;BME280;62385;41.594;23.808;2023-04-01T00:11:30;94775.72;;;10.53;53.43
24160;BME280;62385;41.594;23.808;2023-04-01T00:13:55;94772.69;;;10.35;53.82
24160;BME280;62385;41.594;23.808;2023-04-01T00:16:21;94781.41;;;9.85;55.19
24160;BME280;62385;41.594;23.808;2023-04-01T00:18:48;94776.56;;;9.59;56.59
24160;BME280;62385;41.594;23.808;2023-04-01T00:21:14;94777.66;;;9.79;56.03
24160;BME280;62385;41.594;23.808;2023-04-01T00:23:40;94785.06;;;9.84;56.19
24160;BME280;62385;41.594;23.808;2023-04-01T00:26:05;94789.34;;;9.55;56.80
24160;BME280;62385;41.594;23.808;2023-04-01T00:28:34;94780.53;;;9.25;57.90
24160;BME280;62385;41.594;23.808;2023-04-01T00:31:05;94782.66;;;9.45;57.66
24160;BME280;62385;41.594;23.808;2023-04-01T00:33:31;94778.94;;;9.68;57.25
24160;BME280;62385;41.594;23.808;2023-04-01T00:36:06;94764.84;;;9.39;57.37
24160;BME280;62385;41.594;23.808;2023-04-01T00:38:32;94774.53;;;8.94;59.44
24160;BME280;62385;41.594;23.808;2023-04-01T00:40:57;94788.84;;;9.22;59.31
24160;BME280;62385;41.594;23.808;2023-04-01T00:43:23;94777.34;;;9.30;58.41
24160;BME280;62385;41.594;23.808;2023-04-01T00:45:50;94787.41;;;8.97;59.74
24160;BME280;62385;41.594;23.808;2023-04-01T00:48:16;94783.16;;;9.11;59.34
24160;BME280;62385;41.594;23.808;2023-04-01T00:50:47;94781.53;;;9.24;58.97
24160;BME280;62385;41.594;23.808;2023-04-01T00:53:16;94774.19;;;9.12;59.34
24160;BME280;62385;41.594;23.808;2023-04-01T00:55:49;94764.94;;;9.45;58.72
24160;BME280;62385;41.594;23.808;2023-04-01T00:58:18;94772.38;;;9.64;57.79
24160;BME280;62385;41.594;23.808;2023-04-01T01:00:47;94768.59;;;9.73;57.69
24160;BME280;62385;41.594;23.808;2023-04-01T01:03:14;94763.50;;;9.72;57.77
24160;BME280;62385;41.594;23.808;2023-04-01T01:11:10;94753.50;;;10.03;56.78
24160;BME280;62385;41.594;23.808;2023-04-01T01:13:44;94745.13;;;9.85;57.51
24160;BME280;62385;41.594;23.808;2023-04-01T01:37:33;94732.88;;;10.56;55.14
24160;BME280;62385;41.594;23.808;2023-04-01T01:40:02;94730.59;;;10.53;54.89
24160;BME280;62385;41.594;23.808;2023-04-01T01:42:33;94728.88;;;10.60;55.27
24160;BME280;62385;41.594;23.808;2023-04-01T01:45:01;94723.59;;;10.67;54.47
24160;BME280;62385;41.594;23.808;2023-04-01T01:47:28;94720.34;;;10.29;56.15
24160;BME280;62385;41.594;23.808;2023-04-01T01:49:56;94718.97;;;10.33;56.30
24160;BME280;62385;41.594;23.808;2023-04-01T01:52:23;94715.50;;;10.32;55.42
24160;BME280;62385;41.594;23.808;2023-04-01T01:54:50;94710.06;;;10.04;55.99
24160;BME280;62385;41.594;23.808;2023-04-01T01:57:17;94707.72;;;9.80;57.66
24160;BME280;62385;41.594;23.808;2023-04-01T01:59:48;94710.44;;;9.87;57.82
24160;BME280;62385;41.594;23.808;2023-04-01T02:02:23;94715.44;;;9.60;58.20
24160;BME280;62385;41.594;23.808;2023-04-01T02:04:50;94722.78;;;9.94;57.37
24160;BME280;62385;41.594;23.808;2023-04-01T02:07:24;94724.91;;;9.69;57.93
24160;BME280;62385;41.594;23.808;2023-04-01T02:09:52;94727.09;;;9.37;59.01
24160;BME280;62385;41.594;23.808;2023-04-01T02:12:19;94720.34;;;9.49;58.23
24160;BME280;62385;41.594;23.808;2023-04-01T02:14:52;94723.13;;;8.89;60.86
24160;BME280;62385;41.594;23.808;2023-04-01T02:17:21;94724.25;;;8.71;61.31
24160;BME280;62385;41.594;23.808;2023-04-01T02:19:56;94732.69;;;9.27;59.59
24160;BME280;62385;41.594;23.808;2023-04-01T02:22:27;94735.88;;;9.22;59.46
24160;BME280;62385;41.594;23.808;2023-04-01T02:24:58;94731.28;;;9.16;59.91
24160;BME280;62385;41.594;23.808;2023-04-01T02:27:25;94727.13;;;8.99;60.41
24160;BME280;62385;41.594;23.808;2023-04-01T02:29:51;94723.47;;;8.86;60.68
24160;BME280;62385;41.594;23.808;2023-04-01T02:32:18;94722.50;;;8.64;61.66
24160;BME280;62385;41.594;23.808;2023-04-01T02:34:45;94711.47;;;8.75;61.82
24160;BME280;62385;41.594;23.808;2023-04-01T02:37:12;94706.84;;;8.77;61.72
24160;BME280;62385;41.594;23.808;2023-04-01T02:39:38;94708.03;;;9.26;60.02
24160;BME280;62385;41.594;23.808;2023-04-01T02:42:04;94697.03;;;9.44;59.03
24160;BME280;62385;41.594;23.808;2023-04-01T02:44:30;94695.41;;;9.28;59.38
24160;BME280;62385;41.594;23.808;2023-04-01T02:46:57;94688.28;;;9.58;58.95
24160;BME280;62385;41.594;23.808;2023-04-01T02:49:23;94689.72;;;9.61;58.77
24160;BME280;62385;41.594;23.808;2023-04-01T02:51:48;94680.59;;;9.49;59.43
24160;BME280;62385;41.594;23.808;2023-04-01T02:54:14;94674.31;;;9.35;59.65
24160;BME280;62385;41.594;23.808;2023-04-01T02:56:40;94676.50;;;9.17;60.30
24160;BME280;62385;41.594;23.808;2023-04-01T02:59:05;94674.97;;;9.52;59.57
24160;BME280;62385;41.594;23.808;2023-04-01T03:01:31;94665.09;;;9.46;59.75
24160;BME280;62385;41.594;23.808;2023-04-01T03:03:56;94667.91;;;9.00;60.94
24160;BME280;62385;41.594;23.808;2023-04-01T03:06:22;94665.63;;;9.12;60.67
24160;BME280;62385;41.594;23.808;2023-04-01T03:08:48;94663.91;;;9.34;60.14
24160;BME280;62385;41.594;23.808;2023-04-01T03:11:14;94666.38;;;9.20;60.80
24160;BME280;62385;41.594;23.808;2023-04-01T03:13:40;94679.50;;;9.28;60.51
24160;BME280;62385;41.594;23.808;2023-04-01T03:16:06;94678.53;;;9.30;60.44
24160;BME280;62385;41.594;23.808;2023-04-01T03:18:32;94680.66;;;8.82;61.91
24160;BME280;62385;41.594;23.808;2023-04-01T03:21:02;94666.28;;;8.62;62.47
24160;BME280;62385;41.594;23.808;2023-04-01T03:23:36;94678.22;;;8.95;61.47
24160;BME280;62385;41.594;23.808;2023-04-01T03:26:02;94677.00;;;8.68;61.70
24160;BME280;62385;41.594;23.808;2023-04-01T03:28:29;94677.75;;;8.54;62.04
24160;BME280;62385;41.594;23.808;2023-04-01T03:30:55;94675.13;;;8.54;62.41
24160;BME280;62385;41.594;23.808;2023-04-01T03:33:21;94678.97;;;8.66;61.77
24160;BME280;62385;41.594;23.808;2023-04-01T03:35:46;94677.91;;;8.75;61.39
24160;BME280;62385;41.594;23.808;2023-04-01T03:38:12;94671.91;;;8.13;63.77
24160;BME280;62385;41.594;23.808;2023-04-01T03:40:42;94677.38;;;8.12;63.24
24160;BME280;62385;41.594;23.808;2023-04-01T03:43:10;94674.97;;;8.25;63.28
24160;BME280;62385;41.594;23.808;2023-04-01T03:45:44;94660.97;;;8.47;62.61
24160;BME280;62385;41.594;23.808;2023-04-01T03:48:13;94649.16;;;8.35;62.61
24160;BME280;62385;41.594;23.808;2023-04-01T03:50:39;94651.69;;;8.66;62.76
24160;BME280;62385;41.594;23.808;2023-04-01T03:53:05;94647.84;;;8.54;62.49
24160;BME280;62385;41.594;23.808;2023-04-01T03:55:30;94648.50;;;8.70;61.89
24160;BME280;62385;41.594;23.808;2023-04-01T03:57:56;94645.69;;;8.72;61.83
24160;BME280;62385;41.594;23.808;2023-04-01T04:00:22;94641.69;;;8.91;60.99
24160;BME280;62385;41.594;23.808;2023-04-01T04:02:53;94638.41;;;9.03;60.69
24160;BME280;62385;41.594;23.808;2023-04-01T04:05:25;94652.03;;;8.86;61.61
24160;BME280;62385;41.594;23.808;2023-04-01T04:07:52;94641.88;;;8.89;61.55
24160;BME280;62385;41.594;23.808;2023-04-01T04:10:18;94634.41;;;9.07;61.15
24160;BME280;62385;41.594;23.808;2023-04-01T04:12:44;94634.16;;;9.02;61.13
24160;BME280;62385;41.594;23.808;2023-04-01T04:15:10;94639.44;;;9.02;61.29
24160;BME280;62385;41.594;23.808;2023-04-01T04:17:37;94630.66;;;9.16;61.01
24160;BME280;62385;41.594;23.808;2023-04-01T04:20:03;94652.78;;;9.74;59.24
24160;BME280;62385;41.594;23.808;2023-04-01T04:22:29;94640.72;;;10.07;57.95
24160;BME280;62385;41.594;23.808;2023-04-01T04:24:54;94634.50;;;9.79;58.78
24160;BME280;62385;41.594;23.808;2023-04-01T04:27:20;94629.09;;;9.37;60.34
24160;BME280;62385;41.594;23.808;2023-04-01T04:30:00;94640.56;;;9.73;60.05
24160;BME280;62385;41.594;23.808;2023-04-01T04:32:26;94642.69;;;9.63;59.58
24160;BME280;62385;41.594;23.808;2023-04-01T04:34:52;94638.66;;;9.67;59.51
24160;BME280;62385;41.594;23.808;2023-04-01T04:37:18;94633.75;;;9.49;60.73
24160;BME280;62385;41.594;23.808;2023-04-01T04:39:44;94635.47;;;9.57;60.93
24160;BME280;62385;41.594;23.808;2023-04-01T04:42:27;94638.22;;;9.49;60.05
24160;BME280;62385;41.594;23.808;2023-04-01T04:44:59;94633.50;;;9.80;59.44
24160;BME280;62385;41.594;23.808;2023-04-01T04:47:25;94641.38;;;9.73;59.87
24160;BME280;62385;41.594;23.808;2023-04-01T04:49:51;94631.84;;;9.14;61.61
24160;BME280;62385;41.594;23.808;2023-04-01T04:52:17;94637.66;;;9.68;60.75
24160;BME280;62385;41.594;23.808;2023-04-01T04:54:43;94623.03;;;9.57;60.37
24160;BME280;62385;41.594;23.808;2023-04-01T04:57:09;94630.50;;;9.18;61.56
24160;BME280;62385;41.594;23.808;2023-04-01T04:59:42;94629.88;;;9.66;61.01
24160;BME280;62385;41.594;23.808;2023-04-01T05:02:24;94618.78;;;9.78;60.34
24160;BME280;62385;41.594;23.808;2023-04-01T05:04:51;94611.16;;;9.53;60.81
24160;BME280;62385;41.594;23.808;2023-04-01T05:07:17;94609.56;;;9.08;62.52
24160;BME280;62385;41.594;23.808;2023-04-01T05:09:43;94615.69;;;10.10;60.19
24160;BME280;62385;41.594;23.808;2023-04-01T05:12:11;94612.16;;;10.45;59.39
24160;BME280;62385;41.594;23.808;2023-04-01T05:15:08;94609.94;;;10.49;58.11
24160;BME280;62385;41.594;23.808;2023-04-01T05:17:35;94621.31;;;10.64;58.09
24160;BME280;62385;41.594;23.808;2023-04-01T05:20:02;94608.47;;;10.68;58.05
24160;BME280;62385;41.594;23.808;2023-04-01T05:22:28;94618.56;;;10.57;58.15
24160;BME280;62385;41.594;23.808;2023-04-01T05:24:54;94621.06;;;10.59;58.24
24160;BME280;62385;41.594;23.808;2023-04-01T05:27:21;94618.84;;;10.62;58.70
24160;BME280;62385;41.594;23.808;2023-04-01T05:29:46;94614.06;;;10.30;59.09
24160;BME280;62385;41.594;23.808;2023-04-01T05:32:32;94608.69;;;10.45;58.64
24160;BME280;62385;41.594;23.808;2023-04-01T05:34:59;94611.59;;;10.50;58.19
24160;BME280;62385;41.594;23.808;2023-04-01T05:37:25;94595.53;;;10.37;59.00
24160;BME280;62385;41.594;23.808;2023-04-01T05:39:50;94593.72;;;10.37;59.48
24160;BME280;62385;41.594;23.808;2023-04-01T05:42:16;94595.72;;;10.84;57.95
24160;BME280;62385;41.594;23.808;2023-04-01T05:44:42;94595.66;;;11.05;56.74
24160;BME280;62385;41.594;23.808;2023-04-01T05:47:07;94581.47;;;11.26;56.54
24160;BME280;62385;41.594;23.808;2023-04-01T05:49:34;94579.75;;;11.12;56.40
24160;BME280;62385;41.594;23.808;2023-04-01T05:52:00;94565.97;;;11.43;55.89
24160;BME280;62385;41.594;23.808;2023-04-01T05:54:27;94570.19;;;11.24;56.43
24160;BME280;62385;41.594;23.808;2023-04-01T05:56:53;94555.91;;;11.25;56.86
24160;BME280;62385;41.594;23.808;2023-04-01T05:59:19;94543.06;;;11.89;55.43
24160;BME280;62385;41.594;23.808;2023-04-01T06:01:45;94547.13;;;11.25;58.78
24160;BME280;62385;41.594;23.808;2023-04-01T06:04:16;94540.38;;;11.22;58.70
24160;BME280;62385;41.594;23.808;2023-04-01T06:06:42;94532.13;;;11.10;58.39
24160;BME280;62385;41.594;23.808;2023-04-01T06:09:16;94533.78;;;10.77;59.29
24160;BME280;62385;41.594;23.808;2023-04-01T06:17:28;94541.22;;;10.60;60.63
24160;BME280;62385;41.594;23.808;2023-04-01T06:34:04;94490.84;;;11.15;60.76
24160;BME280;62385;41.594;23.808;2023-04-01T06:36:39;94490.00;;;11.68;58.53
24160;BME280;62385;41.594;23.808;2023-04-01T06:54:21;94485.53;;;12.61;54.27
24160;BME280;62385;41.594;23.808;2023-04-01T06:57:28;94472.94;;;13.07;53.79
24160;BME280;62385;41.594;23.808;2023-04-01T06:59:59;94452.34;;;12.63;54.19
24160;BME280;62385;41.594;23.808;2023-04-01T07:02:50;94452.09;;;13.42;53.37
24160;BME280;62385;41.594;23.808;2023-04-01T07:05:22;94436.84;;;13.56;51.17
24160;BME280;62385;41.594;23.808;2023-04-01T07:07:50;94428.63;;;13.57;50.88
24160;BME280;62385;41.594;23.808;2023-04-01T07:13:45;94447.44;;;13.69;51.38
24160;BME280;62385;41.594;23.808;2023-04-01T07:19:02;94479.38;;;13.75;50.31
24160;BME280;62385;41.594;23.808;2023-04-01T07:21:48;94475.66;;;13.83;50.06
24160;BME280;62385;41.594;23.808;2023-04-01T07:24:27;94469.66;;;14.44;48.64
24160;BME280;62385;41.594;23.808;2023-04-01T07:27:08;94449.00;;;14.75;47.53
24160;BME280;62385;41.594;23.808;2023-04-01T07:29:37;94457.59;;;14.34;48.44
24160;BME280;62385;41.594;23.808;2023-04-01T07:32:19;94454.16;;;14.77;47.45
24160;BME280;62385;41.594;23.808;2023-04-01T07:35:17;94459.69;;;15.48;46.63
24160;BME280;62385;41.594;23.808;2023-04-01T07:49:11;94427.06;;;15.58;47.65
24160;BME280;62385;41.594;23.808;2023-04-01T07:52:13;94409.63;;;15.55;46.75
24160;BME280;62385;41.594;23.808;2023-04-01T09:10:20;94257.06;;;18.33;41.90
24160;BME280;62385;41.594;23.808;2023-04-01T09:29:22;94218.16;;;18.58;44.29
24160;BME280;62385;41.594;23.808;2023-04-01T09:53:05;94167.63;;;20.91;37.82
24160;BME280;62385;41.594;23.808;2023-04-01T10:15:33;94138.50;;;18.52;37.08
24160;BME280;62385;41.594;23.808;2023-04-01T10:41:37;94115.81;;;18.64;38.31
24160;BME280;62385;41.594;23.808;2023-04-01T10:45:41;94104.69;;;18.56;38.54
24160;BME280;62385;41.594;23.808;2023-04-01T10:48:19;94101.09;;;18.23;38.78
24160;BME280;62385;41.594;23.808;2023-04-01T11:06:26;94078.47;;;18.68;35.74
24160;BME280;62385;41.594;23.808;2023-04-01T11:08:52;94091.44;;;18.71;35.59
24160;BME280;62385;41.594;23.808;2023-04-01T11:25:09;94058.94;;;18.24;35.87
24160;BME280;62385;41.594;23.808;2023-04-01T11:33:44;94048.97;;;18.46;36.46
24160;BME280;62385;41.594;23.808;2023-04-01T11:36:37;94044.88;;;18.17;36.90
24160;BME280;62385;41.594;23.808;2023-04-01T11:45:38;94026.63;;;17.92;37.77
24160;BME280;62385;41.594;23.808;2023-04-01T11:51:05;94013.13;;;17.87;37.76
24160;BME280;62385;41.594;23.808;2023-04-01T11:53:52;94013.66;;;18.64;37.34
24160;BME280;62385;41.594;23.808;2023-04-01T12:05:42;94019.31;;;18.63;35.24
24160;BME280;62385;41.594;23.808;2023-04-01T12:11:09;94017.66;;;18.35;36.38
24160;BME280;62385;41.594;23.808;2023-04-01T12:14:17;94012.25;;;18.57;36.79
24160;BME280;62385;41.594;23.808;2023-04-01T12:17:07;94005.25;;;18.87;37.78
24160;BME280;62385;41.594;23.808;2023-04-01T12:33:25;93989.84;;;18.19;40.01
24160;BME280;62385;41.594;23.808;2023-04-01T12:36:01;93985.88;;;18.27;40.41
24160;BME280;62385;41.594;23.808;2023-04-01T12:44:01;93988.03;;;18.25;40.00
24160;BME280;62385;41.594;23.808;2023-04-01T12:49:32;93988.47;;;17.90;40.47
24160;BME280;62385;41.594;23.808;2023-04-01T12:52:11;93990.16;;;17.96;41.39
24160;BME280;62385;41.594;23.808;2023-04-01T13:00:30;93983.81;;;18.07;41.83
24160;BME280;62385;41.594;23.808;2023-04-01T13:06:23;93992.97;;;17.84;42.43
24160;BME280;62385;41.594;23.808;2023-04-01T13:32:04;94138.94;;;15.35;63.25
24160;BME280;62385;41.594;23.808;2023-04-01T13:41:19;94155.78;;;14.59;65.43
24160;BME280;62385;41.594;23.808;2023-04-01T13:47:30;94145.75;;;14.96;64.25
24160;BME280;62385;41.594;23.808;2023-04-01T13:56:02;94146.09;;;14.76;66.70
24160;BME280;62385;41.594;23.808;2023-04-01T13:58:49;94142.25;;;14.72;67.82
24160;BME280;62385;41.594;23.808;2023-04-01T14:07:37;94149.59;;;14.29;63.53
24160;BME280;62385;41.594;23.808;2023-04-01T14:29:27;94161.25;;;15.06;58.98
24160;BME280;62385;41.594;23.808;2023-04-01T14:38:28;94148.09;;;15.16;58.49
24160;BME280;62385;41.594;23.808;2023-04-01T14:44:24;94117.38;;;14.72;61.41
24160;BME280;62385;41.594;23.808;2023-04-01T14:47:11;94097.84;;;14.60;60.74
24160;BME280;62385;41.594;23.808;2023-04-01T14:50:04;94083.38;;;14.08;65.35
24160;BME280;62385;41.594;23.808;2023-04-01T14:52:35;94089.91;;;14.42;63.45
24160;BME280;62385;41.594;23.808;2023-04-01T14:55:20;94084.81;;;14.40;63.57
24160;BME280;62385;41.594;23.808;2023-04-01T15:09:14;94020.03;;;14.56;57.63
24160;BME280;62385;41.594;23.808;2023-04-01T15:12:07;94042.44;;;14.55;58.79
24160;BME280;62385;41.594;23.808;2023-04-01T15:15:01;94041.00;;;14.41;58.75
24160;BME280;62385;41.594;23.808;2023-04-01T15:17:48;94028.69;;;14.28;60.12
24160;BME280;62385;41.594;23.808;2023-04-01T15:31:14;94024.34;;;15.04;57.62
24160;BME280;62385;41.594;23.808;2023-04-01T15:37:10;94043.66;;;16.09;55.12
24160;BME280;62385;41.594;23.808;2023-04-01T15:57:52;94141.22;;;14.44;63.26
24160;BME280;62385;41.594;23.808;2023-04-01T16:00:28;94195.84;;;13.32;65.27
24160;BME280;62385;41.594;23.808;2023-04-01T16:05:59;94192.69;;;12.23;74.78
24160;BME280;62385;41.594;23.808;2023-04-01T16:22:40;94137.25;;;12.76;67.98
24160;BME280;62385;41.594;23.808;2023-04-01T16:25:40;94135.91;;;12.67;65.64
24160;BME280;62385;41.594;23.808;2023-04-01T16:28:28;94156.06;;;13.06;65.15
24160;BME280;62385;41.594;23.808;2023-04-01T16:44:47;94181.63;;;12.57;71.46
24160;BME280;62385;41.594;23.808;2023-04-01T16:47:19;94180.81;;;12.57;72.24
24160;BME280;62385;41.594;23.808;2023-04-01T16:50:26;94171.13;;;12.93;71.46
24160;BME280;62385;41.594;23.808;2023-04-01T17:01:38;94175.75;;;11.40;76.29
24160;BME280;62385;41.594;23.808;2023-04-01T17:04:14;94167.59;;;11.35;75.89
24160;BME280;62385;41.594;23.808;2023-04-01T17:17:42;94201.13;;;10.83;77.02
24160;BME280;62385;41.594;23.808;2023-04-01T17:23:21;94188.88;;;10.62;77.08
24160;BME280;62385;41.594;23.808;2023-04-01T17:28:58;94192.66;;;11.65;72.40
24160;BME280;62385;41.594;23.808;2023-04-01T17:31:44;94213.19;;;10.86;74.40
24160;BME280;62385;41.594;23.808;2023-04-01T17:53:24;94214.75;;;10.41;75.53
24160;BME280;62385;41.594;23.808;2023-04-01T18:15:28;94243.63;;;11.36;71.66
24160;BME280;62385;41.594;23.808;2023-04-01T18:18:00;94238.13;;;11.18;72.04
24160;BME280;62385;41.594;23.808;2023-04-01T18:23:19;94264.84;;;10.90;73.48
24160;BME280;62385;41.594;23.808;2023-04-01T18:25:53;94261.25;;;10.30;76.10
24160;BME280;62385;41.594;23.808;2023-04-01T18:28:38;94284.31;;;11.30;72.54
24160;BME280;62385;41.594;23.808;2023-04-01T18:31:20;94276.88;;;10.66;74.98
24160;BME280;62385;41.594;23.808;2023-04-01T18:34:16;94278.56;;;11.00;72.64
24160;BME280;62385;41.594;23.808;2023-04-01T18:36:51;94282.03;;;11.59;69.26
24160;BME280;62385;41.594;23.808;2023-04-01T18:39:37;94291.88;;;11.79;69.74
24160;BME280;62385;41.594;23.808;2023-04-01T18:44:48;94312.91;;;11.28;71.39
24160;BME280;62385;41.594;23.808;2023-04-01T18:47:41;94331.47;;;10.95;71.59
24160;BME280;62385;41.594;23.808;2023-04-01T18:53:23;94342.31;;;11.13;69.91
24160;BME280;62385;41.594;23.808;2023-04-01T18:56:12;94340.63;;;10.86;70.07
24160;BME280;62385;41.594;23.808;2023-04-01T19:04:26;94362.78;;;11.26;69.60
24160;BME280;62385;41.594;23.808;2023-04-01T19:06:58;94354.75;;;11.06;70.04
24160;BME280;62385;41.594;23.808;2023-04-01T19:09:43;94350.50;;;11.05;70.61
24160;BME280;62385;41.594;23.808;2023-04-01T19:15:34;94342.06;;;10.95;71.52
24160;BME280;62385;41.594;23.808;2023-04-01T19:18:39;94341.78;;;10.63;73.65
24160;BME280;62385;41.594;23.808;2023-04-01T19:21:21;94334.28;;;10.80;72.85
24160;BME280;62385;41.594;23.808;2023-04-01T19:26:45;94352.28;;;10.91;71.81
24160;BME280;62385;41.594;23.808;2023-04-01T19:34:57;94373.16;;;11.07;71.46
24160;BME280;62385;41.594;23.808;2023-04-01T19:37:54;94377.66;;;10.46;73.17
24160;BME280;62385;41.594;23.808;2023-04-01T19:43:13;94378.31;;;9.93;74.27
24160;BME280;62385;41.594;23.808;2023-04-01T19:51:29;94382.91;;;10.05;73.90
24160;BME280;62385;41.594;23.808;2023-04-01T19:54:10;94384.63;;;9.92;72.81
24160;BME280;62385;41.594;23.808;2023-04-01T19:56:58;94380.81;;;9.45;74.45
24160;BME280;62385;41.594;23.808;2023-04-01T19:59:38;94389.53;;;9.39;74.86
24160;BME280;62385;41.594;23.808;2023-04-01T20:04:44;94395.13;;;9.08;75.62
24160;BME280;62385;41.594;23.808;2023-04-01T20:07:27;94387.09;;;9.44;74.25
24160;BME280;62385;41.594;23.808;2023-04-01T20:15:22;94409.75;;;9.25;74.60
24160;BME280;62385;41.594;23.808;2023-04-01T20:17:49;94399.25;;;9.11;74.39
24160;BME280;62385;41.594;23.808;2023-04-01T20:20:23;94410.53;;;8.84;74.73
24160;BME280;62385;41.594;23.808;2023-04-01T20:23:26;94400.34;;;8.80;75.73
24160;BME280;62385;41.594;23.808;2023-04-01T20:26:01;94397.69;;;8.66;76.50
24160;BME280;62385;41.594;23.808;2023-04-01T20:31:34;94404.91;;;8.72;75.79
24160;BME280;62385;41.594;23.808;2023-04-01T20:50:41;94424.69;;;9.12;74.04
24160;BME280;62385;41.594;23.808;2023-04-01T20:53:35;94425.63;;;8.54;75.95
24160;BME280;62385;41.594;23.808;2023-04-01T20:58:53;94435.94;;;8.99;74.18
24160;BME280;62385;41.594;23.808;2023-04-01T21:31:22;94452.31;;;9.45;71.45
24160;BME280;62385;41.594;23.808;2023-04-01T21:54:27;94451.06;;;8.84;72.75
24160;BME280;62385;41.594;23.808;2023-04-01T22:05:52;94445.44;;;9.30;70.71
24160;BME280;62385;41.594;23.808;2023-04-01T22:12:10;94455.22;;;9.29;71.05
24160;BME280;62385;41.594;23.808;2023-04-01T22:15:14;94453.63;;;8.77;73.11
24160;BME280;62385;41.594;23.808;2023-04-01T22:20:36;94478.88;;;8.21;74.96
24160;BME280;62385;41.594;23.808;2023-04-01T22:28:25;94488.16;;;7.80;76.39
24160;BME280;62385;41.594;23.808;2023-04-01T22:31:03;94486.22;;;8.63;73.42
24160;BME280;62385;41.594;23.808;2023-04-01T22:33:56;94486.28;;;8.70;72.43
24160;BME280;62385;41.594;23.808;2023-04-01T22:36:45;94498.66;;;9.13;71.12
24160;BME280;62385;41.594;23.808;2023-04-01T22:39:38;94499.38;;;8.19;73.64
24160;BME280;62385;41.594;23.808;2023-04-01T22:50:35;94497.72;;;8.56;72.01
24160;BME280;62385;41.594;23.808;2023-04-01T22:55:57;94513.84;;;7.49;75.19
24160;BME280;62385;41.594;23.808;2023-04-01T22:58:31;94518.59;;;8.36;73.25
24160;BME280;62385;41.594;23.808;2023-04-01T23:01:03;94511.34;;;9.03;70.61
24160;BME280;62385;41.594;23.808;2023-04-01T23:03:33;94507.03;;;9.17;70.77
24160;BME280;62385;41.594;23.808;2023-04-01T23:06:02;94510.91;;;9.00;71.03
24160;BME280;62385;41.594;23.808;2023-04-01T23:11:40;94521.97;;;8.07;73.12
24160;BME280;62385;41.594;23.808;2023-04-01T23:17:32;94517.59;;;7.77;74.41
24160;BME280;62385;41.594;23.808;2023-04-01T23:22:29;94529.31;;;7.29;75.68
24160;BME280;62385;41.594;23.808;2023-04-01T23:27:34;94527.13;;;7.40;75.04
24160;BME280;62385;41.594;23.808;2023-04-01T23:30:03;94536.97;;;7.69;74.42
24160;BME280;62385;41.594;23.808;2023-04-01T23:32:29;94533.94;;;8.18;72.66
24160;BME280;62385;41.594;23.808;2023-04-01T23:34:57;94542.31;;;7.61;73.77
24160;BME280;62385;41.594;23.808;2023-04-01T23:37:24;94534.84;;;7.87;74.22
24160;BME280;62385;41.594;23.808;2023-04-01T23:39:56;94532.28;;;8.17;72.70
24160;BME280;62385;41.594;23.808;2023-04-01T23:42:30;94530.22;;;7.67;74.17
24160;BME280;62385;41.594;23.808;2023-04-01T23:45:11;94535.19;;;7.84;74.09
24160;BME280;62385;41.594;23.808;2023-04-01T23:47:39;94534.16;;;7.71;74.54
24160;BME280;62385;41.594;23.808;2023-04-01T23:50:13;94539.69;;;7.30;75.71
24160;BME280;62385;41.594;23.808;2023-04-01T23:52:44;94542.19;;;7.77;75.26
24160;BME280;62385;41.594;23.808;2023-04-01T23:55:22;94544.91;;;8.29;73.08
24160;BME280;62385;41.594;23.808;2023-04-01T23:58:17;94552.69;;;8.31;73.02
